Time;durP1;ratioP1;P1;durP2;ratioP2;P2;SDS_P1;SDS_P2;PMS_P1;PMS_P2;Temp;Humidity;BMP_temperature;BMP_pressure;BME280_temperature;BME280_humidity;BME280_pressure;Samples;Min_cycle;Max_cycle;Signal;HPM_P1;HPM_P2
2023/05/09 00:01:11;;;;;;;7.82;4.05;;;;;;;14.99;40.52;102380.31;5042875;28;20091;-32
2023/05/09 00:03:38;;;;;;;11.30;4.55;;;;;;;14.90;40.33;102390.41;5043616;28;20029;-32
2023/05/09 00:06:04;;;;;;;8.25;4.05;;;;;;;14.91;40.31;102378.88;5041247;28;20418;-33
2023/05/09 00:08:30;;;;;;;8.13;3.90;;;;;;;14.94;40.56;102375.25;5050666;28;20610;-33
2023/05/09 00:10:55;;;;;;;7.10;3.55;;;;;;;14.93;40.44;102382.31;5043839;28;20084;-32
2023/05/09 00:13:22;;;;;;;6.75;3.67;;;;;;;14.96;40.21;102372.50;5040297;28;20036;-33
2023/05/09 00:15:47;;;;;;;7.65;3.92;;;;;;;14.94;40.40;102373.44;5036603;28;20041;-32
2023/05/09 00:18:13;;;;;;;8.55;3.90;;;;;;;14.99;40.18;102369.69;5035955;28;20167;-32
2023/05/09 00:20:39;;;;;;;10.35;4.25;;;;;;;14.97;40.23;102360.97;5035954;28;20139;-32
2023/05/09 00:23:06;;;;;;;8.52;4.07;;;;;;;14.89;40.16;102362.22;5038276;28;20082;-33
2023/05/09 00:25:32;;;;;;;8.55;4.40;;;;;;;14.77;40.59;102358.38;5034331;28;20138;-33
2023/05/09 00:27:57;;;;;;;8.07;3.85;;;;;;;14.79;40.57;102360.94;5038823;28;20474;-32
2023/05/09 00:30:23;;;;;;;7.95;4.13;;;;;;;14.77;40.53;102362.81;5034483;28;20029;-33
2023/05/09 00:32:49;;;;;;;9.68;5.50;;;;;;;14.78;40.68;102362.75;5038113;28;20033;-33
2023/05/09 00:35:14;;;;;;;5.80;4.20;;;;;;;14.73;40.70;102361.28;5038529;28;20076;-33
2023/05/09 00:37:40;;;;;;;7.95;4.35;;;;;;;14.68;40.75;102365.94;5037334;28;20086;-33
2023/05/09 00:40:06;;;;;;;8.02;4.03;;;;;;;14.54;41.11;102369.22;5041943;28;21872;-33
2023/05/09 00:42:32;;;;;;;8.23;3.67;;;;;;;14.54;41.12;102361.25;5032558;28;20033;-33
2023/05/09 00:44:57;;;;;;;4.88;2.83;;;;;;;14.55;41.26;102358.56;5036616;28;20067;-32
2023/05/09 00:47:23;;;;;;;9.18;3.92;;;;;;;14.56;40.98;102362.94;5043608;22;20042;-35
2023/05/09 00:49:49;;;;;;;6.07;3.40;;;;;;;14.55;41.04;102352.38;5015733;28;20062;-35
2023/05/09 00:52:16;;;;;;;6.28;3.80;;;;;;;14.52;41.07;102358.69;5018129;28;20041;-34
2023/05/09 00:54:42;;;;;;;6.03;3.70;;;;;;;14.50;41.13;102360.56;4998276;22;20065;-31
2023/05/09 00:57:07;;;;;;;7.00;3.95;;;;;;;14.50;41.10;102349.13;5028004;28;20405;-33
2023/05/09 00:59:34;;;;;;;6.55;3.70;;;;;;;14.51;41.28;102350.84;5041355;22;20302;-34
2023/05/09 01:01:59;;;;;;;7.22;3.80;;;;;;;14.49;41.34;102353.53;5020291;28;20047;-34
2023/05/09 01:04:25;;;;;;;6.72;4.47;;;;;;;14.48;41.17;102357.13;5023282;28;20124;-33
2023/05/09 01:07:05;;;;;;;9.65;4.22;;;;;;;14.50;41.20;102354.41;5023999;28;20438;-35
2023/05/09 01:09:52;;;;;;;8.90;4.15;;;;;;;14.43;41.40;102348.56;5016682;28;20045;-35
2023/05/09 01:12:39;;;;;;;7.85;4.13;;;;;;;14.42;41.58;102347.69;5040058;28;20032;-35
2023/05/09 01:15:23;;;;;;;8.55;4.47;;;;;;;14.38;41.59;102350.56;5045658;28;20029;-35
2023/05/09 01:18:05;;;;;;;8.20;4.13;;;;;;;14.35;41.63;102350.72;5028646;28;20545;-35
2023/05/09 01:20:45;;;;;;;;;;;;;;;14.26;41.92;102349.34;5028805;28;20123;-35
2023/05/09 01:23:29;;;;;;;6.38;3.67;;;;;;;14.22;41.86;102338.06;5050788;22;19934;-33
2023/05/09 01:26:02;;;;;;;6.30;4.03;;;;;;;14.22;41.86;102339.88;5017044;28;20029;-33
2023/05/09 01:28:34;;;;;;;8.25;4.15;;;;;;;14.17;41.87;102348.00;5024208;22;20099;-35
2023/05/09 01:30:59;;;;;;;;;;;;;;;14.12;42.37;102339.44;5010955;28;20038;-35
2023/05/09 01:33:27;;;;;;;6.97;4.22;;;;;;;14.15;41.67;102339.28;5027553;22;19935;-33
2023/05/09 01:36:00;;;;;;;6.82;4.20;;;;;;;14.16;41.82;102341.88;4987286;28;20048;-32
2023/05/09 01:38:28;;;;;;;8.25;4.57;;;;;;;14.11;41.86;102340.38;5013582;28;20052;-33
2023/05/09 01:40:58;;;;;;;7.60;4.35;;;;;;;14.07;41.96;102342.28;5015371;28;20064;-32
2023/05/09 01:43:26;;;;;;;7.50;3.53;;;;;;;14.02;41.94;102339.84;5012253;28;20561;-32
2023/05/09 01:45:52;;;;;;;7.93;4.28;;;;;;;13.91;42.29;102342.16;5021611;28;20033;-31
2023/05/09 01:48:20;;;;;;;7.40;4.15;;;;;;;13.89;42.31;102335.22;5016802;28;20117;-34
2023/05/09 01:50:47;;;;;;;5.80;3.58;;;;;;;13.87;42.41;102340.56;5010552;28;20029;-33
2023/05/09 01:53:14;;;;;;;8.85;3.97;;;;;;;13.77;42.67;102324.25;5022852;22;20226;-34
2023/05/09 01:55:42;;;;;;;12.40;4.10;;;;;;;13.72;42.71;102332.41;4990508;28;20052;-34
2023/05/09 01:58:08;;;;;;;6.15;3.28;;;;;;;13.63;42.93;102326.69;5010279;28;20036;-34
2023/05/09 02:00:34;;;;;;;7.20;4.38;;;;;;;13.50;43.47;102323.75;4993432;28;20553;-34
2023/05/09 02:03:06;;;;;;;7.07;3.67;;;;;;;13.41;43.68;102319.72;4990196;28;20065;-34
2023/05/09 02:05:32;;;;;;;;;;;;;;;13.30;44.58;102317.53;4985361;28;20041;-34
2023/05/09 02:08:08;;;;;;;8.60;4.13;;;;;;;13.25;44.01;102319.50;4992965;28;20363;-34
2023/05/09 02:10:43;;;;;;;7.30;3.88;;;;;;;13.15;44.00;102321.72;5010265;28;20029;-34
2023/05/09 02:13:08;;;;;;;7.75;4.28;;;;;;;13.06;44.19;102320.31;4976414;28;20025;-34
2023/05/09 02:15:35;;;;;;;15.27;4.00;;;;;;;13.04;44.12;102316.00;4987294;28;20498;-33
2023/05/09 02:18:01;;;;;;;7.45;4.18;;;;;;;12.99;44.33;102318.84;4992263;28;20109;-34
2023/05/09 02:20:27;;;;;;;5.95;3.88;;;;;;;13.00;44.45;102320.56;5004845;28;20032;-34
2023/05/09 02:22:52;;;;;;;10.55;4.60;;;;;;;13.03;44.42;102312.53;5007340;28;20037;-34
2023/05/09 02:25:18;;;;;;;9.90;4.65;;;;;;;13.02;44.46;102309.94;4977875;28;20028;-34
2023/05/09 02:27:46;;;;;;;8.45;4.20;;;;;;;13.04;44.42;102314.25;4983277;28;20041;-34
2023/05/09 02:30:23;;;;;;;10.65;4.20;;;;;;;13.08;44.56;102315.81;5006271;28;20030;-34
2023/05/09 02:32:58;;;;;;;8.18;3.97;;;;;;;13.11;44.40;102309.56;5003128;28;20037;-34
2023/05/09 02:35:28;;;;;;;8.15;4.63;;;;;;;13.13;44.47;102306.81;4988365;28;20030;-34
2023/05/09 02:38:01;;;;;;;9.25;4.20;;;;;;;13.04;44.42;102303.66;5007904;28;20030;-33
2023/05/09 02:40:30;;;;;;;6.22;3.72;;;;;;;13.04;44.51;102308.97;4993380;28;20084;-34
2023/05/09 02:42:58;;;;;;;7.63;3.83;;;;;;;13.03;44.62;102301.94;5012479;28;20026;-34
2023/05/09 02:45:25;;;;;;;7.70;3.70;;;;;;;13.11;44.08;102305.09;4990467;28;20484;-34
2023/05/09 02:47:51;;;;;;;37.65;21.98;;;;;;;13.22;43.99;102296.72;4994116;28;20057;-34
2023/05/09 02:50:40;;;;;;;46.67;20.83;;;;;;;13.30;44.55;102301.66;5000507;28;20125;-34
2023/05/09 02:53:06;;;;;;;12.95;6.50;;;;;;;13.30;44.09;102296.38;4999102;28;20038;-35
2023/05/09 02:55:37;;;;;;;5.90;3.17;;;;;;;13.28;44.18;102298.22;4981189;28;20056;-34
2023/05/09 02:58:03;;;;;;;6.57;4.15;;;;;;;13.27;44.10;102302.66;5004164;28;20116;-34
2023/05/09 03:00:31;;;;;;;6.70;4.38;;;;;;;13.32;43.80;102301.56;4972607;28;20453;-34
2023/05/09 03:03:08;;;;;;;6.22;3.67;;;;;;;13.36;43.80;102306.69;4974364;28;20041;-34
2023/05/09 03:05:34;;;;;;;7.97;4.13;;;;;;;13.31;43.87;102306.03;4996825;23;20607;-30
2023/05/09 03:07:59;;;;;;;6.95;3.85;;;;;;;13.24;43.96;102301.91;4987605;28;20029;-32
2023/05/09 03:10:25;;;;;;;10.68;4.35;;;;;;;13.19;44.00;102298.63;4980529;28;20025;-32
2023/05/09 03:12:50;;;;;;;6.90;4.15;;;;;;;13.18;44.04;102299.56;4977651;28;20042;-32
2023/05/09 03:15:16;;;;;;;10.60;3.97;;;;;;;13.17;44.07;102308.41;4990402;28;20037;-32
2023/05/09 03:17:41;;;;;;;9.35;4.78;;;;;;;13.11;44.26;102306.91;4990742;28;20045;-32
2023/05/09 03:20:08;;;;;;;10.82;4.28;;;;;;;13.07;44.36;102303.53;5006101;22;20135;-33
2023/05/09 03:22:34;;;;;;;8.48;3.85;;;;;;;13.04;44.43;102303.66;4991216;28;22524;-33
2023/05/09 03:25:00;;;;;;;7.13;3.90;;;;;;;13.00;44.50;102306.53;4992677;28;20029;-34
2023/05/09 03:27:25;;;;;;;7.43;3.85;;;;;;;12.95;44.56;102304.03;4995575;28;20132;-34
2023/05/09 03:29:51;;;;;;;9.73;4.53;;;;;;;13.00;44.54;102304.72;4975789;28;20597;-33
2023/05/09 03:32:16;;;;;;;8.25;4.30;;;;;;;13.01;44.30;102303.78;5013261;23;20033;-33
2023/05/09 03:34:42;;;;;;;7.68;3.97;;;;;;;12.90;44.47;102304.25;5028123;28;20499;-33
2023/05/09 03:37:07;;;;;;;8.13;4.53;;;;;;;12.80;44.81;102301.13;5036150;28;20388;-31
2023/05/09 03:39:33;;;;;;;8.43;4.25;;;;;;;12.71;45.00;102300.66;5031231;28;20102;-33
2023/05/09 03:41:58;;;;;;;6.55;3.83;;;;;;;12.63;45.26;102295.69;5034699;28;20025;-32
2023/05/09 03:44:24;;;;;;;9.90;3.85;;;;;;;12.55;45.28;102305.72;5051693;22;20062;-35
2023/05/09 03:46:50;;;;;;;8.93;4.25;;;;;;;12.52;45.41;102292.66;5047529;28;20116;-34
2023/05/09 03:49:15;;;;;;;11.40;4.00;;;;;;;12.54;45.33;102293.44;5045225;22;20061;-34
2023/05/09 03:51:41;;;;;;;13.07;5.30;;;;;;;12.61;45.30;102300.22;5007568;28;20041;-34
2023/05/09 03:54:07;;;;;;;7.90;4.57;;;;;;;12.70;45.05;102298.97;5038437;22;20072;-32
2023/05/09 03:56:32;;;;;;;8.95;5.68;;;;;;;12.76;44.97;102301.34;4994401;28;20467;-33
2023/05/09 03:58:58;;;;;;;8.52;4.15;;;;;;;12.81;44.88;102309.94;5020682;22;20723;-33
2023/05/09 04:01:24;;;;;;;6.53;4.15;;;;;;;12.80;44.83;102309.06;4985733;28;20040;-34
2023/05/09 04:03:50;;;;;;;6.53;3.35;;;;;;;12.71;44.97;102308.59;5042843;22;21872;-33
2023/05/09 04:06:17;;;;;;;9.52;3.65;;;;;;;12.72;44.92;102307.66;5018123;28;20486;-32
2023/05/09 04:08:43;;;;;;;7.70;3.75;;;;;;;12.74;44.92;102303.19;5016993;28;20960;-32
2023/05/09 04:11:08;;;;;;;8.23;3.75;;;;;;;12.76;45.17;102304.84;5018388;28;20033;-32
2023/05/09 04:13:34;;;;;;;5.78;3.67;;;;;;;12.70;45.06;102298.97;5017631;28;20034;-32
2023/05/09 04:16:00;;;;;;;5.93;3.70;;;;;;;12.70;45.05;102309.53;5038242;22;20037;-35
2023/05/09 04:18:26;;;;;;;9.02;3.97;;;;;;;12.71;45.06;102298.91;5015442;28;20064;-34
2023/05/09 04:20:52;;;;;;;8.82;4.68;;;;;;;12.74;45.15;102298.78;4990122;28;20140;-34
2023/05/09 04:23:18;;;;;;;8.38;4.72;;;;;;;12.76;44.90;102302.22;5027723;28;20954;-34
2023/05/09 04:26:01;;;;;;;9.23;4.25;;;;;;;12.74;45.46;102306.69;4998118;28;20040;-34
2023/05/09 04:28:32;;;;;;;9.57;3.85;;;;;;;12.76;45.04;102304.84;5023178;28;20037;-33
2023/05/09 04:30:58;;;;;;;9.48;3.60;;;;;;;12.80;45.00;102295.00;5021634;28;20024;-34
2023/05/09 04:33:23;;;;;;;7.45;3.90;;;;;;;12.78;45.14;102297.69;5006065;28;20166;-34
2023/05/09 04:35:50;;;;;;;6.57;3.33;;;;;;;12.82;45.19;102303.72;5033264;28;20025;-35
2023/05/09 04:38:15;;;;;;;8.95;3.28;;;;;;;12.86;44.88;102299.16;5036378;28;20047;-34
2023/05/09 04:40:40;;;;;;;6.45;3.70;;;;;;;12.87;44.94;102306.16;5036062;28;20010;-34
2023/05/09 04:43:07;;;;;;;9.93;4.90;;;;;;;12.86;45.21;102301.81;5033094;22;20105;-35
2023/05/09 04:45:32;;;;;;;7.82;3.22;;;;;;;12.89;44.97;102305.16;5004161;28;20112;-37
2023/05/09 04:47:58;;;;;;;6.53;3.63;;;;;;;12.89;44.97;102296.41;5017152;22;20054;-31
2023/05/09 04:50:23;;;;;;;19.02;3.53;;;;;;;12.94;44.97;102305.84;4986868;28;20030;-30
2023/05/09 04:52:49;;;;;;;5.90;3.60;;;;;;;13.02;44.88;102305.53;5001850;28;20582;-33
2023/05/09 04:55:15;;;;;;;9.43;4.53;;;;;;;13.07;44.74;102311.47;5002360;28;20041;-33
2023/05/09 04:57:40;;;;;;;6.05;4.03;;;;;;;13.10;44.54;102307.81;5029086;22;20054;-34
2023/05/09 05:00:06;;;;;;;4.80;3.20;;;;;;;13.11;44.73;102314.84;5014102;28;20036;-34
2023/05/09 05:02:32;;;;;;;5.70;3.25;;;;;;;13.13;44.66;102312.09;4998978;28;20025;-34
2023/05/09 05:04:58;;;;;;;8.38;3.35;;;;;;;13.19;44.50;102310.06;5015223;28;20025;-34
2023/05/09 05:07:23;;;;;;;8.32;3.78;;;;;;;13.21;44.59;102310.84;5002948;28;20040;-34
2023/05/09 05:09:49;;;;;;;10.88;4.05;;;;;;;13.22;44.63;102322.31;5014872;28;20108;-34
2023/05/09 05:12:14;;;;;;;8.27;3.80;;;;;;;13.26;44.57;102310.66;5019515;28;20037;-34
2023/05/09 05:14:40;;;;;;;8.68;3.33;;;;;;;13.29;44.66;102307.88;5013660;28;20170;-34
2023/05/09 05:17:05;;;;;;;9.48;3.63;;;;;;;13.29;44.65;102307.03;5020463;28;20033;-34
2023/05/09 05:19:30;;;;;;;9.23;3.72;;;;;;;13.27;44.53;102302.66;5023513;28;20036;-34
2023/05/09 05:21:56;;;;;;;10.48;3.85;;;;;;;13.32;44.57;102307.75;5016904;28;20044;-34
2023/05/09 05:24:21;;;;;;;6.80;3.85;;;;;;;13.36;44.55;102304.03;5016839;28;20026;-34
2023/05/09 05:26:47;;;;;;;5.95;3.50;;;;;;;13.37;44.62;102303.13;5011943;28;20022;-34
2023/05/09 05:29:12;;;;;;;8.90;3.45;;;;;;;13.33;44.72;102305.94;5019180;28;20034;-34
2023/05/09 05:31:37;;;;;;;8.23;4.00;;;;;;;13.35;44.72;102307.63;5015614;28;20029;-34
2023/05/09 05:34:03;;;;;;;9.50;3.65;;;;;;;13.44;44.72;102306.38;5019348;28;20124;-34
2023/05/09 05:36:28;;;;;;;7.78;3.72;;;;;;;13.49;44.72;102304.38;5015071;28;20064;-34
2023/05/09 05:38:54;;;;;;;16.80;4.20;;;;;;;13.48;44.56;102307.09;5016528;28;20025;-34
2023/05/09 05:41:19;;;;;;;15.68;5.90;;;;;;;13.47;44.85;102300.09;5016936;23;20034;-31
2023/05/09 05:43:45;;;;;;;4.63;2.90;;;;;;;13.44;44.93;102290.50;4999197;28;20045;-33
2023/05/09 05:46:10;;;;;;;5.80;3.40;;;;;;;13.41;44.93;102294.13;5000686;28;20034;-32
2023/05/09 05:48:36;;;;;;;5.15;3.22;;;;;;;13.44;44.97;102287.00;5001328;28;20034;-33
2023/05/09 05:51:01;;;;;;;6.53;3.33;;;;;;;13.45;45.08;102291.34;4982266;28;20030;-33
2023/05/09 05:53:26;;;;;;;10.88;3.78;;;;;;;13.44;45.04;102282.56;5000473;28;20119;-33
2023/05/09 05:55:52;;;;;;;6.70;4.50;;;;;;;13.50;44.80;102294.66;5014872;22;20046;-34
2023/05/09 05:58:17;;;;;;;6.80;3.45;;;;;;;13.48;45.15;102293.88;5015981;28;20143;-36
2023/05/09 06:00:43;;;;;;;6.80;3.00;;;;;;;13.52;44.95;102291.00;4997183;28;20500;-35
2023/05/09 06:03:12;;;;;;;8.55;3.88;;;;;;;13.57;44.93;102291.66;5017503;22;20469;-35
2023/05/09 06:05:41;;;;;;;10.13;3.30;;;;;;;13.57;44.76;102283.72;5000467;28;20512;-35
2023/05/09 06:08:06;;;;;;;10.48;3.08;;;;;;;13.59;44.59;102283.66;5001114;28;20074;-33
2023/05/09 06:10:31;;;;;;;6.05;3.38;;;;;;;13.62;44.73;102288.81;4982922;28;20028;-33
2023/05/09 06:12:57;;;;;;;6.43;2.88;;;;;;;13.63;44.78;102277.31;4979300;28;20035;-33
2023/05/09 06:15:22;;;;;;;5.72;3.10;;;;;;;13.68;44.52;102285.88;4999891;22;20287;-36
2023/05/09 06:17:48;;;;;;;9.73;3.75;;;;;;;13.71;44.43;102274.31;4996858;28;20065;-34
2023/05/09 06:20:13;;;;;;;7.97;3.80;;;;;;;13.72;44.50;102268.94;5004124;22;20094;-34
2023/05/09 06:22:39;;;;;;;9.77;3.65;;;;;;;13.80;44.39;102278.31;5038192;28;20473;-35
2023/05/09 06:25:04;;;;;;;4.88;2.92;;;;;;;13.84;44.43;102269.31;5033948;28;20040;-34
2023/05/09 06:27:30;;;;;;;5.63;3.03;;;;;;;13.92;44.22;102266.25;5033775;28;20276;-34
2023/05/09 06:29:55;;;;;;;5.22;2.88;;;;;;;13.88;43.68;102262.91;5020904;28;20053;-34
2023/05/09 06:32:21;;;;;;;5.30;2.83;;;;;;;13.91;43.71;102252.19;5003906;28;20038;-34
2023/05/09 06:34:47;;;;;;;6.00;2.97;;;;;;;13.96;43.48;102254.59;5003055;28;20107;-34
2023/05/09 06:37:12;;;;;;;7.78;2.95;;;;;;;13.99;43.58;102255.31;5020513;28;20030;-35
2023/05/09 06:39:38;;;;;;;5.05;2.58;;;;;;;14.02;43.31;102249.03;5000557;28;20543;-34
2023/05/09 06:42:03;;;;;;;6.00;2.95;;;;;;;14.01;43.14;102255.25;5016251;28;20040;-34
2023/05/09 06:44:28;;;;;;;5.03;2.65;;;;;;;14.04;42.85;102249.81;5018909;28;20109;-34
2023/05/09 06:46:54;;;;;;;8.00;2.47;;;;;;;14.01;43.06;102256.09;5018196;28;20034;-34
2023/05/09 06:49:19;;;;;;;6.10;2.25;;;;;;;14.06;42.92;102247.09;5020941;28;20066;-35
2023/05/09 06:51:45;;;;;;;4.88;2.58;;;;;;;14.09;42.93;102260.19;5018825;28;20033;-35
2023/05/09 06:54:10;;;;;;;4.20;1.90;;;;;;;14.15;42.77;102260.75;5000031;28;20597;-34
2023/05/09 06:56:36;;;;;;;5.47;2.47;;;;;;;14.21;42.61;102256.94;5021334;28;20028;-34
2023/05/09 06:59:01;;;;;;;7.03;2.90;;;;;;;14.21;42.36;102256.09;5016359;28;20037;-35
2023/05/09 07:01:27;;;;;;;4.35;2.60;;;;;;;14.23;42.27;102248.91;5022353;28;20038;-34
2023/05/09 07:03:52;;;;;;;5.82;2.80;;;;;;;14.29;42.15;102252.09;5023314;28;20021;-34
2023/05/09 07:06:17;;;;;;;7.03;2.50;;;;;;;14.32;42.36;102236.06;5026033;28;20056;-34
2023/05/09 07:08:43;;;;;;;6.25;2.53;;;;;;;14.33;42.03;102243.06;5024674;28;20030;-34
2023/05/09 07:11:08;;;;;;;4.13;1.90;;;;;;;14.37;41.85;102229.69;5023697;28;20115;-35
2023/05/09 07:13:34;;;;;;;4.40;2.47;;;;;;;14.38;41.76;102245.50;5023780;28;20496;-35
2023/05/09 07:15:59;;;;;;;4.43;2.35;;;;;;;14.39;41.84;102227.81;5019553;28;20435;-34
2023/05/09 07:18:24;;;;;;;4.80;2.22;;;;;;;14.43;41.53;102232.03;5021841;28;20022;-35
2023/05/09 07:20:50;;;;;;;6.28;2.65;;;;;;;14.44;41.31;102224.00;5017820;28;20027;-34
2023/05/09 07:23:15;;;;;;;7.88;3.67;;;;;;;14.48;41.13;102222.94;5018753;28;20130;-34
2023/05/09 07:25:42;;;;;;;7.05;3.67;;;;;;;14.43;40.94;102221.44;5016893;28;20041;-34
2023/05/09 07:28:11;;;;;;;5.72;2.33;;;;;;;14.44;40.79;102212.56;5020470;28;20041;-34
2023/05/09 07:30:37;;;;;;;5.10;2.25;;;;;;;14.52;40.82;102209.53;5017492;28;20060;-34
2023/05/09 07:33:03;;;;;;;5.07;2.28;;;;;;;14.59;41.15;102211.78;5020071;28;22590;-34
2023/05/09 07:35:28;;;;;;;5.13;2.33;;;;;;;14.68;41.03;102209.63;5020245;28;20037;-34
2023/05/09 07:37:53;;;;;;;6.07;3.10;;;;;;;14.73;40.96;102202.31;5017115;28;20045;-34
2023/05/09 07:40:19;;;;;;;7.20;2.65;;;;;;;14.79;40.88;102201.97;5018922;28;20034;-35
2023/05/09 07:42:48;;;;;;;4.80;2.67;;;;;;;14.84;40.93;102197.28;5018602;28;20042;-35
2023/05/09 07:45:15;;;;;;;6.82;2.85;;;;;;;14.89;41.11;102191.75;5018225;28;20124;-35
2023/05/09 07:47:40;;;;;;;4.75;2.65;;;;;;;14.91;40.82;102179.28;5024900;28;20032;-34
2023/05/09 07:50:06;;;;;;;8.45;2.70;;;;;;;14.92;40.84;102183.63;5019712;28;20033;-35
2023/05/09 07:52:31;;;;;;;5.45;2.47;;;;;;;14.91;40.42;102166.00;5022606;28;20122;-34
2023/05/09 07:55:01;;;;;;;8.68;4.03;;;;;;;14.92;40.42;102163.28;5014746;28;20034;-35
2023/05/09 07:57:27;;;;;;;6.10;2.83;;;;;;;14.96;40.59;102161.34;5008124;28;20128;-35
2023/05/09 07:59:52;;;;;;;10.10;2.47;;;;;;;14.90;40.42;102154.53;5020881;28;20071;-35
2023/05/09 08:02:18;;;;;;;4.80;2.65;;;;;;;14.93;40.11;102162.34;5023403;28;20688;-35
2023/05/09 08:04:43;;;;;;;3.88;2.20;;;;;;;14.99;40.14;102150.53;5022060;28;23806;-34
2023/05/09 08:07:10;;;;;;;9.02;2.90;;;;;;;15.04;39.78;102143.22;5008041;28;20045;-35
2023/05/09 08:09:36;;;;;;;4.50;2.17;;;;;;;15.11;39.94;102149.03;5021997;28;20502;-35
2023/05/09 08:12:01;;;;;;;4.80;2.70;;;;;;;15.06;39.35;102136.03;5021377;28;20496;-35
2023/05/09 08:14:27;;;;;;;4.32;2.25;;;;;;;15.07;39.62;102128.91;5024732;28;20032;-35
2023/05/09 08:16:53;;;;;;;5.97;2.45;;;;;;;15.15;39.99;102124.06;5020806;28;20026;-35
2023/05/09 08:19:19;;;;;;;3.92;2.25;;;;;;;15.25;39.99;102124.41;5024660;28;20041;-35
2023/05/09 08:21:45;;;;;;;8.50;3.47;;;;;;;15.30;39.88;102132.13;5021396;28;20087;-35
2023/05/09 08:24:10;;;;;;;3.75;2.00;;;;;;;15.34;39.86;102112.44;5023984;28;20026;-35
2023/05/09 08:26:36;;;;;;;5.82;2.70;;;;;;;15.38;40.17;102120.13;5021669;28;20353;-34
2023/05/09 08:29:01;;;;;;;4.30;2.65;;;;;;;15.43;40.14;102111.06;5001606;28;20038;-34
2023/05/09 08:31:27;;;;;;;5.57;2.40;;;;;;;15.47;40.14;102101.97;5022373;28;20040;-34
2023/05/09 08:33:52;;;;;;;4.25;2.72;;;;;;;15.57;40.29;102104.97;5023339;28;20120;-34
2023/05/09 08:36:18;;;;;;;4.82;1.80;;;;;;;15.65;40.15;102098.28;5021644;28;20140;-35
2023/05/09 08:38:43;;;;;;;3.53;1.88;;;;;;;15.70;39.61;102096.22;5021976;28;20040;-35
2023/05/09 08:41:09;;;;;;;4.20;2.03;;;;;;;15.74;39.37;102091.59;5020369;28;20148;-35
2023/05/09 08:43:35;;;;;;;7.85;2.75;;;;;;;15.79;39.27;102092.19;5022125;28;20068;-35
2023/05/09 08:46:06;;;;;;;9.27;2.42;;;;;;;15.85;38.75;102091.84;5020174;28;20052;-35
2023/05/09 08:48:33;;;;;;;3.78;2.00;;;;;;;15.90;38.76;102080.09;5020395;28;20025;-35
2023/05/09 08:51:00;;;;;;;4.00;1.70;;;;;;;15.92;38.41;102075.56;5019428;28;20038;-35
2023/05/09 08:53:25;;;;;;;9.80;3.72;;;;;;;15.94;38.46;102071.88;5022143;28;20105;-35
2023/05/09 08:55:51;;;;;;;4.80;1.98;;;;;;;15.99;38.38;102061.84;5020820;28;20035;-34
2023/05/09 08:58:19;;;;;;;7.43;2.30;;;;;;;16.05;38.36;102060.59;5022199;28;20037;-35
2023/05/09 09:00:46;;;;;;;4.30;2.10;;;;;;;16.07;38.35;102057.84;5020291;28;20034;-35
2023/05/09 09:03:11;;;;;;;3.13;2.08;;;;;;;16.11;37.99;102052.25;5023033;28;20041;-35
2023/05/09 09:05:41;;;;;;;5.88;2.72;;;;;;;16.18;37.74;102049.25;5002780;28;20473;-35
2023/05/09 09:08:08;;;;;;;7.15;2.78;;;;;;;16.23;37.59;102055.13;5020392;28;20116;-35
2023/05/09 09:10:33;;;;;;;6.03;2.25;;;;;;;16.24;37.41;102043.56;5020992;28;20025;-35
2023/05/09 09:13:03;;;;;;;10.10;2.15;;;;;;;16.26;36.99;102041.69;5004603;28;20037;-35
2023/05/09 09:15:33;;;;;;;6.10;2.00;;;;;;;16.31;36.84;102039.56;5022662;28;20033;-35
2023/05/09 09:18:03;;;;;;;5.13;2.08;;;;;;;16.36;36.69;102042.81;5018085;28;20124;-34
2023/05/09 09:20:30;;;;;;;4.60;1.70;;;;;;;16.43;36.15;102038.81;5021451;28;20592;-35
2023/05/09 09:23:01;;;;;;;4.72;2.28;;;;;;;16.50;36.21;102033.13;5019939;28;20049;-35
2023/05/09 09:25:27;;;;;;;3.15;1.77;;;;;;;16.54;36.42;102037.31;5022144;28;20079;-35
2023/05/09 09:27:52;;;;;;;6.22;3.60;;;;;;;16.59;36.39;102032.53;5018336;28;20033;-35
2023/05/09 09:30:18;;;;;;;6.50;2.17;;;;;;;16.61;35.93;102025.31;5021952;28;20464;-35
2023/05/09 09:32:43;;;;;;;6.50;2.25;;;;;;;16.65;35.83;102021.53;5020413;28;20037;-35
2023/05/09 09:35:10;;;;;;;3.15;2.20;;;;;;;16.71;35.86;102021.13;5017968;28;20048;-35
2023/05/09 09:37:39;;;;;;;6.35;2.67;;;;;;;16.77;35.78;102018.09;5019470;28;20048;-35
2023/05/09 09:40:09;;;;;;;3.42;1.95;;;;;;;16.83;35.64;102013.34;5018234;28;20117;-35
2023/05/09 09:42:43;;;;;;;5.43;2.15;;;;;;;16.85;34.97;102006.13;5020382;28;20514;-35
2023/05/09 09:45:10;;;;;;;5.97;2.05;;;;;;;16.89;35.45;102012.94;5018599;28;20037;-35
2023/05/09 09:47:36;;;;;;;5.90;2.10;;;;;;;16.95;35.73;102009.91;5022085;28;20071;-35
2023/05/09 09:50:15;;;;;;;5.70;2.25;;;;;;;17.04;35.34;102004.00;5019103;28;20037;-35
2023/05/09 09:52:55;;;;;;;5.93;1.95;;;;;;;17.13;35.04;101996.38;5018939;28;20041;-35
2023/05/09 09:55:23;;;;;;;5.10;2.70;;;;;;;17.19;35.57;101998.63;5021506;28;20065;-35
2023/05/09 09:57:49;;;;;;;7.43;2.15;;;;;;;17.26;35.54;101993.75;5018203;28;20037;-35
2023/05/09 10:00:18;;;;;;;5.18;2.15;;;;;;;17.31;35.13;101987.19;5020095;28;20029;-35
2023/05/09 10:02:54;;;;;;;5.60;1.95;;;;;;;17.39;34.36;101983.16;5020875;28;20056;-35
2023/05/09 10:05:28;;;;;;;5.15;2.45;;;;;;;17.43;33.93;101988.16;5014714;22;20444;-33
2023/05/09 10:07:59;;;;;;;4.22;2.05;;;;;;;17.46;34.59;101984.47;5013332;22;20098;-33
2023/05/09 10:10:31;;;;;;;4.88;2.40;;;;;;;17.49;33.74;101973.59;4990671;28;20556;-33
2023/05/09 10:12:59;;;;;;;7.35;2.95;;;;;;;17.51;34.31;101969.00;4982759;28;20057;-33
2023/05/09 10:15:26;;;;;;;6.53;2.10;;;;;;;17.58;34.43;101980.09;5001526;28;20045;-33
2023/05/09 10:17:56;;;;;;;8.05;2.25;;;;;;;17.63;34.31;101976.16;5026232;22;20078;-33
2023/05/09 10:20:23;;;;;;;4.28;2.42;;;;;;;17.65;34.75;101968.91;5030690;23;20048;-34
2023/05/09 10:22:53;;;;;;;12.93;5.63;;;;;;;17.72;34.84;101973.84;5016643;28;20017;-35
2023/05/09 10:25:20;;;;;;;11.02;4.15;;;;;;;17.78;34.65;101957.44;5021923;28;20696;-34
2023/05/09 10:27:47;;;;;;;4.47;2.75;;;;;;;17.85;34.59;101958.72;5021230;28;20152;-34
2023/05/09 10:30:26;;;;;;;7.43;2.40;;;;;;;17.90;34.19;101961.06;5004573;28;20113;-34
2023/05/09 10:33:20;;;;;;;4.40;2.45;;;;;;;17.99;33.87;101955.13;5003151;28;20021;-35
2023/05/09 10:35:46;;;;;;;12.13;2.40;;;;;;;18.02;34.25;101959.38;4997079;28;20132;-35
2023/05/09 10:38:13;;;;;;;7.18;2.08;;;;;;;18.04;34.11;101952.97;5002352;28;20033;-35
2023/05/09 10:40:45;;;;;;;7.80;2.65;;;;;;;18.09;34.07;101939.34;5020488;22;20618;-36
2023/05/09 10:45:39;;;;;;;7.85;3.00;;;;;;;18.14;34.19;101931.88;5027908;28;20053;-33
2023/05/09 10:48:07;;;;;;;4.10;2.15;;;;;;;18.18;34.34;101938.69;5040858;22;20060;-35
2023/05/09 10:50:45;;;;;;;4.90;1.98;;;;;;;18.27;33.51;101932.69;5017002;28;20021;-35
2023/05/09 10:53:14;;;;;;;7.03;2.80;;;;;;;18.28;33.88;101923.75;5019070;28;20069;-35
2023/05/09 10:55:45;;;;;;;4.22;2.05;;;;;;;18.34;33.26;101922.44;5002676;28;20576;-35
2023/05/09 10:58:30;;;;;;;4.70;2.40;;;;;;;18.40;32.47;101923.81;5018138;28;20037;-35
2023/05/09 11:00:57;;;;;;;4.68;2.45;;;;;;;18.44;33.50;101906.66;4993871;28;20083;-35
2023/05/09 11:03:24;;;;;;;8.43;4.20;;;;;;;18.49;33.39;101914.31;5017983;28;20030;-35
2023/05/09 11:05:52;;;;;;;9.63;2.30;;;;;;;18.55;33.18;101908.53;5014008;28;20060;-35
2023/05/09 11:08:26;;;;;;;4.38;2.40;;;;;;;18.61;32.72;101907.22;5017491;28;20021;-35
2023/05/09 11:11:24;;;;;;;5.15;1.98;;;;;;;18.67;31.97;101902.31;5018404;28;20032;-35
2023/05/09 11:13:57;;;;;;;5.72;2.33;;;;;;;18.74;32.17;101898.22;5018541;28;20373;-35
2023/05/09 11:16:25;;;;;;;4.93;2.58;;;;;;;18.79;32.72;101900.53;5019409;28;20044;-35
2023/05/09 11:18:51;;;;;;;6.57;2.45;;;;;;;18.82;32.46;101881.66;5045970;22;20109;-33
2023/05/09 11:21:19;;;;;;;4.35;1.98;;;;;;;18.86;32.31;101879.59;5031765;28;20017;-36
2023/05/09 11:23:45;;;;;;;10.75;2.58;;;;;;;18.94;32.06;101881.69;5025260;22;20501;-33
2023/05/09 11:26:10;;;;;;;4.70;2.15;;;;;;;18.98;32.13;101877.88;5005944;28;20030;-32
2023/05/09 11:28:37;;;;;;;3.95;2.17;;;;;;;19.02;31.81;101879.31;5015755;22;20422;-35